Traverse City, MI (49686)

12:25 AM EST on November 24, 2014 (GMT -0500)
Hills of Westbrook | Change Station
CLOSE
Current Station
Personal Weather Station
Location: Traverse City, MI
Elevation: 1043 ft
Nearby Weather Stations

Elev 1043 ft 44.76 °N, 85.69 °W | Updated 6 seconds ago

Light Rain
Light Rain
46.2 °F
Feels Like 45 °F
N
3.4
Wind Variable Wind from NE
Gusts 4.9 mph

Today
High -- | Low -- °F
--% Chance of Precip.
Yesterday
High -- | Low -- °F
Precip. -- in
7:51 AM 5:06 PM
Waxing Crescent, 4% visible
Pressure 29.20 in
Visibility 9.0 miles
Clouds Overcast 800 ft
Windchill 45 °F
Dew Point 44 °F
Humidity 93%
Rainfall 0.05 in
Snow Depth Not available.
UV 0 out of 12
Pollen .10 out of 12
Air Quality Not available.
Flu Activity Not available.
METAR KTVC 240453Z AUTO VRB03KT 9SM -RA OVC008 09/07 A2919 RMK AO2 PRESFR SLP887 P0003 T00890072 401110039

More Conditions Fewer Conditions

Pressure 29.20 in
Visibility 9.0 miles
Clouds Overcast 800 ft
Windchill 45 °F
Dew Point 44 °F
Humidity 93%
Rainfall 0.05 in
Snow Depth Not available.
UV 0 out of 12
Pollen .10 out of 12
Air Quality Not available.
Flu Activity Not available.
METAR KTVC 240453Z AUTO VRB03KT 9SM -RA OVC008 09/07 A2919 RMK AO2 PRESFR SLP887 P0003 T00890072 401110039

More Conditions Fewer Conditions

Nowcast | as of 12:00 am EST on November 24, 2014

At 1 am...areas of fog. Rain. Temperature 46. Southeast winds 5 mph. At 3 am...areas of fog. Rain. Temperature 44. Light winds. At 5 am...areas of fog. Rain. Temperature 43. South winds 5 mph. At 7 am...periods of rain. Temperature 42. Southwest winds 7 mph.

×

10-Day Weather Forecast

Almanac

Astronomy

Nov. 24, 2014 Rise Set
Actual Time
Civil Twilight
Nautical Twilight
Astronomical Twilight
Moon
Length of Visible Light
Length of Day
Tomorrow will be .
, % of the Moon is Illuminated

Today's Extremes

State Highs State Lows

Community

WunderPhotos

Upload Photos

1,773,269 photos uploaded!

WunderBlogs® & News

Nearby

Air Quality

  Air Quality AQ Index Pollutant
Not available.

Snow Depth

Station Depth Elevation

Earthquake Activity

City Distance Mag. Time & Date
Minimum magnitude displayed is 2.5.

Coastal Water Temperatures

Place Temperature

Nearby Weather Stations